Canebrake, West Virginia
Current Conditions -  °F | °C
As of 12:55 PM on Friday 21 Nov 2014 (Local Time) from KJFZ Reporting Station
Clear Clear  
Wind Chill:   Ceiling: Unl
Heat Index:   Visibility: 10mi
Dew Point: -14°   Wind: 6mph
Humidity: 28%   Direction: 280°W
Pressure: 30.39"   Gusts: NA
Location:  37.2686°N, 81.6669°W
Report Text: KJFZ 211755Z AUTO 28005KT 10SM CLR 03/M14 A3039 RMK AO2 T00261142 10027 21052
Loading
Personal Weather Stations






























Interactive Weather Map New forecast layout! Learn more

10-Day Weather Forecast

Advertisements
Track Severe Weather on mobile